sensor_id;sensor_type;location;lat;lon;timestamp;P1;durP1;ratioP1;P2;durP2;ratioP2
16642;SDS011;8435;52.184;5.406;2022-12-07T00:01:58;5.73;;;3.73;;
16642;SDS011;8435;52.184;5.406;2022-12-07T00:04:26;6.13;;;3.97;;
16642;SDS011;8435;52.184;5.406;2022-12-07T00:06:53;4.73;;;3.73;;
16642;SDS011;8435;52.184;5.406;2022-12-07T00:09:20;5.83;;;3.80;;
16642;SDS011;8435;52.184;5.406;2022-12-07T00:11:48;6.57;;;3.63;;
16642;SDS011;8435;52.184;5.406;2022-12-07T00:14:18;4.77;;;3.67;;
16642;SDS011;8435;52.184;5.406;2022-12-07T00:16:45;3.93;;;3.47;;
16642;SDS011;8435;52.184;5.406;2022-12-07T00:19:15;5.20;;;4.23;;
16642;SDS011;8435;52.184;5.406;2022-12-07T00:21:43;5.30;;;4.03;;
16642;SDS011;8435;52.184;5.406;2022-12-07T00:24:10;4.13;;;3.60;;
16642;SDS011;8435;52.184;5.406;2022-12-07T00:26:38;6.83;;;3.50;;
16642;SDS011;8435;52.184;5.406;2022-12-07T00:29:11;3.97;;;3.40;;
16642;SDS011;8435;52.184;5.406;2022-12-07T00:31:41;4.37;;;3.63;;
16642;SDS011;8435;52.184;5.406;2022-12-07T00:34:11;5.40;;;4.17;;
16642;SDS011;8435;52.184;5.406;2022-12-07T00:36:39;5.83;;;4.00;;
16642;SDS011;8435;52.184;5.406;2022-12-07T00:39:07;6.93;;;4.17;;
16642;SDS011;8435;52.184;5.406;2022-12-07T00:41:34;4.30;;;3.90;;
16642;SDS011;8435;52.184;5.406;2022-12-07T00:44:01;6.33;;;3.73;;
16642;SDS011;8435;52.184;5.406;2022-12-07T00:46:28;4.97;;;3.87;;
16642;SDS011;8435;52.184;5.406;2022-12-07T00:48:55;3.93;;;3.50;;
16642;SDS011;8435;52.184;5.406;2022-12-07T00:51:28;5.03;;;3.47;;
16642;SDS011;8435;52.184;5.406;2022-12-07T00:53:54;5.70;;;3.63;;
16642;SDS011;8435;52.184;5.406;2022-12-07T00:56:23;4.33;;;3.33;;
16642;SDS011;8435;52.184;5.406;2022-12-07T00:58:51;5.53;;;3.50;;
16642;SDS011;8435;52.184;5.406;2022-12-07T01:01:20;5.60;;;3.50;;
16642;SDS011;8435;52.184;5.406;2022-12-07T01:03:48;5.10;;;3.70;;
16642;SDS011;8435;52.184;5.406;2022-12-07T01:06:15;4.13;;;3.30;;
16642;SDS011;8435;52.184;5.406;2022-12-07T01:08:43;4.53;;;3.30;;
16642;SDS011;8435;52.184;5.406;2022-12-07T01:11:11;4.43;;;3.10;;
16642;SDS011;8435;52.184;5.406;2022-12-07T01:13:40;4.20;;;3.30;;
16642;SDS011;8435;52.184;5.406;2022-12-07T01:16:08;3.70;;;2.97;;
16642;SDS011;8435;52.184;5.406;2022-12-07T01:18:37;4.90;;;3.43;;
16642;SDS011;8435;52.184;5.406;2022-12-07T01:21:07;6.47;;;2.97;;
16642;SDS011;8435;52.184;5.406;2022-12-07T01:23:37;4.57;;;2.90;;
16642;SDS011;8435;52.184;5.406;2022-12-07T01:26:05;5.17;;;2.90;;
16642;SDS011;8435;52.184;5.406;2022-12-07T01:28:33;6.00;;;2.77;;
16642;SDS011;8435;52.184;5.406;2022-12-07T01:31:02;3.73;;;2.40;;
16642;SDS011;8435;52.184;5.406;2022-12-07T01:33:31;3.53;;;2.73;;
16642;SDS011;8435;52.184;5.406;2022-12-07T01:36:03;3.00;;;2.17;;
16642;SDS011;8435;52.184;5.406;2022-12-07T01:38:30;3.90;;;2.50;;
16642;SDS011;8435;52.184;5.406;2022-12-07T01:40:59;3.30;;;1.83;;
16642;SDS011;8435;52.184;5.406;2022-12-07T01:43:29;4.73;;;2.03;;
16642;SDS011;8435;52.184;5.406;2022-12-07T01:45:57;3.93;;;1.90;;
16642;SDS011;8435;52.184;5.406;2022-12-07T01:48:26;4.73;;;1.90;;
16642;SDS011;8435;52.184;5.406;2022-12-07T01:50:57;3.60;;;1.97;;
16642;SDS011;8435;52.184;5.406;2022-12-07T01:53:28;4.17;;;1.57;;
16642;SDS011;8435;52.184;5.406;2022-12-07T01:55:56;4.00;;;2.20;;
16642;SDS011;8435;52.184;5.406;2022-12-07T01:58:25;3.57;;;1.80;;
16642;SDS011;8435;52.184;5.406;2022-12-07T02:00:52;2.70;;;1.60;;
16642;SDS011;8435;52.184;5.406;2022-12-07T02:03:23;3.80;;;1.80;;
16642;SDS011;8435;52.184;5.406;2022-12-07T02:05:56;3.87;;;1.33;;
16642;SDS011;8435;52.184;5.406;2022-12-07T02:08:24;3.93;;;1.73;;
16642;SDS011;8435;52.184;5.406;2022-12-07T02:10:51;2.40;;;1.40;;
16642;SDS011;8435;52.184;5.406;2022-12-07T02:13:18;2.10;;;1.40;;
16642;SDS011;8435;52.184;5.406;2022-12-07T02:15:51;4.43;;;1.70;;
16642;SDS011;8435;52.184;5.406;2022-12-07T02:18:35;1.93;;;1.50;;
16642;SDS011;8435;52.184;5.406;2022-12-07T02:21:11;4.67;;;1.40;;
16642;SDS011;8435;52.184;5.406;2022-12-07T02:23:58;3.70;;;1.63;;
16642;SDS011;8435;52.184;5.406;2022-12-07T02:26:59;4.87;;;1.43;;
16642;SDS011;8435;52.184;5.406;2022-12-07T02:29:38;2.77;;;1.23;;
16642;SDS011;8435;52.184;5.406;2022-12-07T02:32:12;4.17;;;1.40;;
16642;SDS011;8435;52.184;5.406;2022-12-07T02:34:47;1.73;;;1.50;;
16642;SDS011;8435;52.184;5.406;2022-12-07T02:37:25;3.03;;;1.27;;
16642;SDS011;8435;52.184;5.406;2022-12-07T02:40:01;2.77;;;1.60;;
16642;SDS011;8435;52.184;5.406;2022-12-07T02:42:36;2.47;;;1.20;;
16642;SDS011;8435;52.184;5.406;2022-12-07T02:45:08;2.80;;;1.47;;
16642;SDS011;8435;52.184;5.406;2022-12-07T02:47:36;2.57;;;1.20;;
16642;SDS011;8435;52.184;5.406;2022-12-07T02:50:05;3.20;;;1.43;;
16642;SDS011;8435;52.184;5.406;2022-12-07T02:52:33;2.67;;;1.40;;
16642;SDS011;8435;52.184;5.406;2022-12-07T02:55:00;2.07;;;1.77;;
16642;SDS011;8435;52.184;5.406;2022-12-07T02:57:32;2.73;;;1.53;;
16642;SDS011;8435;52.184;5.406;2022-12-07T03:00:09;3.03;;;1.73;;
16642;SDS011;8435;52.184;5.406;2022-12-07T03:02:42;3.33;;;1.20;;
16642;SDS011;8435;52.184;5.406;2022-12-07T03:05:23;3.27;;;1.77;;
16642;SDS011;8435;52.184;5.406;2022-12-07T03:07:59;2.13;;;1.53;;
16642;SDS011;8435;52.184;5.406;2022-12-07T03:10:33;3.93;;;1.10;;
16642;SDS011;8435;52.184;5.406;2022-12-07T03:13:07;3.70;;;1.80;;
16642;SDS011;8435;52.184;5.406;2022-12-07T03:15:41;5.03;;;1.77;;
16642;SDS011;8435;52.184;5.406;2022-12-07T03:18:16;2.40;;;1.60;;
16642;SDS011;8435;52.184;5.406;2022-12-07T03:20:48;5.10;;;1.80;;
16642;SDS011;8435;52.184;5.406;2022-12-07T03:23:19;2.90;;;1.70;;
16642;SDS011;8435;52.184;5.406;2022-12-07T03:25:52;2.57;;;1.50;;
16642;SDS011;8435;52.184;5.406;2022-12-07T03:28:22;2.43;;;1.80;;
16642;SDS011;8435;52.184;5.406;2022-12-07T03:30:55;3.87;;;1.70;;
16642;SDS011;8435;52.184;5.406;2022-12-07T03:33:26;2.83;;;2.17;;
16642;SDS011;8435;52.184;5.406;2022-12-07T03:35:58;2.07;;;1.50;;
16642;SDS011;8435;52.184;5.406;2022-12-07T03:38:31;5.00;;;1.67;;
16642;SDS011;8435;52.184;5.406;2022-12-07T03:41:08;3.67;;;1.50;;
16642;SDS011;8435;52.184;5.406;2022-12-07T03:43:40;5.57;;;2.10;;
16642;SDS011;8435;52.184;5.406;2022-12-07T03:46:17;2.07;;;1.53;;
16642;SDS011;8435;52.184;5.406;2022-12-07T03:48:51;4.70;;;1.33;;
16642;SDS011;8435;52.184;5.406;2022-12-07T03:51:24;3.23;;;1.67;;
16642;SDS011;8435;52.184;5.406;2022-12-07T03:53:57;2.70;;;1.63;;
16642;SDS011;8435;52.184;5.406;2022-12-07T03:56:28;3.93;;;1.60;;
16642;SDS011;8435;52.184;5.406;2022-12-07T03:58:56;2.73;;;2.00;;
16642;SDS011;8435;52.184;5.406;2022-12-07T04:01:24;4.17;;;1.77;;
16642;SDS011;8435;52.184;5.406;2022-12-07T04:03:51;6.00;;;1.90;;
16642;SDS011;8435;52.184;5.406;2022-12-07T04:06:18;2.80;;;1.20;;
16642;SDS011;8435;52.184;5.406;2022-12-07T04:08:45;3.47;;;1.53;;
16642;SDS011;8435;52.184;5.406;2022-12-07T04:11:12;4.50;;;1.77;;
16642;SDS011;8435;52.184;5.406;2022-12-07T04:13:41;7.20;;;2.10;;
16642;SDS011;8435;52.184;5.406;2022-12-07T04:16:26;2.40;;;1.30;;
16642;SDS011;8435;52.184;5.406;2022-12-07T04:18:53;3.23;;;1.67;;
16642;SDS011;8435;52.184;5.406;2022-12-07T04:21:20;3.03;;;1.70;;
16642;SDS011;8435;52.184;5.406;2022-12-07T04:23:47;3.57;;;1.57;;
16642;SDS011;8435;52.184;5.406;2022-12-07T04:26:13;4.70;;;1.80;;
16642;SDS011;8435;52.184;5.406;2022-12-07T04:28:40;2.67;;;1.27;;
16642;SDS011;8435;52.184;5.406;2022-12-07T04:31:07;2.43;;;1.47;;
16642;SDS011;8435;52.184;5.406;2022-12-07T04:33:36;6.00;;;3.30;;
16642;SDS011;8435;52.184;5.406;2022-12-07T04:36:03;5.77;;;4.07;;
16642;SDS011;8435;52.184;5.406;2022-12-07T04:38:30;5.20;;;2.53;;
16642;SDS011;8435;52.184;5.406;2022-12-07T04:40:57;4.00;;;2.10;;
16642;SDS011;8435;52.184;5.406;2022-12-07T04:43:24;6.17;;;1.97;;
16642;SDS011;8435;52.184;5.406;2022-12-07T04:45:50;6.50;;;2.73;;
16642;SDS011;8435;52.184;5.406;2022-12-07T04:48:17;4.70;;;1.83;;
16642;SDS011;8435;52.184;5.406;2022-12-07T04:50:47;4.07;;;2.00;;
16642;SDS011;8435;52.184;5.406;2022-12-07T04:53:14;3.97;;;1.60;;
16642;SDS011;8435;52.184;5.406;2022-12-07T04:55:41;5.87;;;1.60;;
16642;SDS011;8435;52.184;5.406;2022-12-07T04:58:08;3.53;;;1.73;;
16642;SDS011;8435;52.184;5.406;2022-12-07T05:00:37;1.93;;;1.60;;
16642;SDS011;8435;52.184;5.406;2022-12-07T05:03:04;3.83;;;1.57;;
16642;SDS011;8435;52.184;5.406;2022-12-07T05:05:31;4.80;;;1.90;;
16642;SDS011;8435;52.184;5.406;2022-12-07T05:07:59;4.17;;;1.30;;
16642;SDS011;8435;52.184;5.406;2022-12-07T05:10:29;2.77;;;1.40;;
16642;SDS011;8435;52.184;5.406;2022-12-07T05:12:56;3.43;;;1.40;;
16642;SDS011;8435;52.184;5.406;2022-12-07T05:15:24;3.67;;;1.37;;
16642;SDS011;8435;52.184;5.406;2022-12-07T05:17:51;4.03;;;1.30;;
16642;SDS011;8435;52.184;5.406;2022-12-07T05:20:18;3.00;;;1.30;;
16642;SDS011;8435;52.184;5.406;2022-12-07T05:22:45;2.53;;;1.50;;
16642;SDS011;8435;52.184;5.406;2022-12-07T05:25:13;3.03;;;1.20;;
16642;SDS011;8435;52.184;5.406;2022-12-07T05:27:40;2.33;;;1.47;;
16642;SDS011;8435;52.184;5.406;2022-12-07T05:30:07;2.77;;;1.17;;
16642;SDS011;8435;52.184;5.406;2022-12-07T05:32:35;4.87;;;1.90;;
16642;SDS011;8435;52.184;5.406;2022-12-07T05:35:01;4.87;;;1.60;;
16642;SDS011;8435;52.184;5.406;2022-12-07T05:37:30;2.57;;;1.10;;
16642;SDS011;8435;52.184;5.406;2022-12-07T05:39:57;1.70;;;0.93;;
16642;SDS011;8435;52.184;5.406;2022-12-07T05:42:25;3.73;;;1.20;;
16642;SDS011;8435;52.184;5.406;2022-12-07T05:44:52;2.40;;;1.10;;
16642;SDS011;8435;52.184;5.406;2022-12-07T05:47:20;3.47;;;1.20;;
16642;SDS011;8435;52.184;5.406;2022-12-07T05:49:47;2.83;;;1.00;;
16642;SDS011;8435;52.184;5.406;2022-12-07T05:52:13;2.37;;;1.33;;
16642;SDS011;8435;52.184;5.406;2022-12-07T05:54:40;2.03;;;1.00;;
16642;SDS011;8435;52.184;5.406;2022-12-07T05:57:07;2.60;;;1.10;;
16642;SDS011;8435;52.184;5.406;2022-12-07T05:59:35;5.43;;;1.60;;
16642;SDS011;8435;52.184;5.406;2022-12-07T06:02:02;4.00;;;1.10;;
16642;SDS011;8435;52.184;5.406;2022-12-07T06:04:31;2.57;;;1.00;;
16642;SDS011;8435;52.184;5.406;2022-12-07T06:06:59;4.20;;;1.17;;
16642;SDS011;8435;52.184;5.406;2022-12-07T06:09:26;2.73;;;1.10;;
16642;SDS011;8435;52.184;5.406;2022-12-07T06:11:54;2.90;;;1.53;;
16642;SDS011;8435;52.184;5.406;2022-12-07T06:14:40;4.13;;;1.60;;
16642;SDS011;8435;52.184;5.406;2022-12-07T06:17:07;2.73;;;1.20;;
16642;SDS011;8435;52.184;5.406;2022-12-07T06:19:33;3.40;;;2.10;;
16642;SDS011;8435;52.184;5.406;2022-12-07T06:22:00;3.37;;;1.77;;
16642;SDS011;8435;52.184;5.406;2022-12-07T06:24:27;1.90;;;1.20;;
16642;SDS011;8435;52.184;5.406;2022-12-07T06:26:54;4.07;;;1.70;;
16642;SDS011;8435;52.184;5.406;2022-12-07T06:29:21;3.30;;;1.10;;
16642;SDS011;8435;52.184;5.406;2022-12-07T06:31:49;3.67;;;1.50;;
16642;SDS011;8435;52.184;5.406;2022-12-07T06:34:17;2.43;;;1.17;;
16642;SDS011;8435;52.184;5.406;2022-12-07T06:36:47;2.27;;;1.27;;
16642;SDS011;8435;52.184;5.406;2022-12-07T06:39:16;3.47;;;1.57;;
16642;SDS011;8435;52.184;5.406;2022-12-07T06:41:44;7.10;;;1.60;;
16642;SDS011;8435;52.184;5.406;2022-12-07T06:44:12;5.03;;;1.70;;
16642;SDS011;8435;52.184;5.406;2022-12-07T06:46:39;3.90;;;1.77;;
16642;SDS011;8435;52.184;5.406;2022-12-07T06:49:07;2.20;;;1.30;;
16642;SDS011;8435;52.184;5.406;2022-12-07T06:51:34;5.10;;;1.53;;
16642;SDS011;8435;52.184;5.406;2022-12-07T06:54:05;3.53;;;1.50;;
16642;SDS011;8435;52.184;5.406;2022-12-07T06:56:32;3.43;;;1.40;;
16642;SDS011;8435;52.184;5.406;2022-12-07T06:58:59;1.80;;;1.27;;
16642;SDS011;8435;52.184;5.406;2022-12-07T07:01:26;3.37;;;1.13;;
16642;SDS011;8435;52.184;5.406;2022-12-07T07:03:53;6.27;;;1.53;;
16642;SDS011;8435;52.184;5.406;2022-12-07T07:06:21;3.80;;;1.80;;
16642;SDS011;8435;52.184;5.406;2022-12-07T07:08:48;3.83;;;1.70;;
16642;SDS011;8435;52.184;5.406;2022-12-07T07:11:15;2.97;;;1.57;;
16642;SDS011;8435;52.184;5.406;2022-12-07T07:13:42;4.97;;;1.53;;
16642;SDS011;8435;52.184;5.406;2022-12-07T07:16:09;7.83;;;1.73;;
16642;SDS011;8435;52.184;5.406;2022-12-07T07:18:36;3.53;;;1.80;;
16642;SDS011;8435;52.184;5.406;2022-12-07T07:21:03;5.27;;;1.70;;
16642;SDS011;8435;52.184;5.406;2022-12-07T07:23:31;1.73;;;1.40;;
16642;SDS011;8435;52.184;5.406;2022-12-07T07:25:58;5.30;;;1.83;;
16642;SDS011;8435;52.184;5.406;2022-12-07T07:28:25;5.07;;;1.90;;
16642;SDS011;8435;52.184;5.406;2022-12-07T07:30:52;3.03;;;1.93;;
16642;SDS011;8435;52.184;5.406;2022-12-07T07:33:18;6.17;;;1.87;;
16642;SDS011;8435;52.184;5.406;2022-12-07T07:35:45;3.50;;;1.53;;
16642;SDS011;8435;52.184;5.406;2022-12-07T07:38:12;4.37;;;1.60;;
16642;SDS011;8435;52.184;5.406;2022-12-07T07:40:40;4.50;;;2.13;;
16642;SDS011;8435;52.184;5.406;2022-12-07T07:43:07;3.47;;;1.97;;
16642;SDS011;8435;52.184;5.406;2022-12-07T07:45:34;4.70;;;2.00;;
16642;SDS011;8435;52.184;5.406;2022-12-07T07:48:00;4.03;;;1.63;;
16642;SDS011;8435;52.184;5.406;2022-12-07T07:50:27;3.10;;;1.83;;
16642;SDS011;8435;52.184;5.406;2022-12-07T07:52:54;3.67;;;1.70;;
16642;SDS011;8435;52.184;5.406;2022-12-07T07:55:23;5.70;;;1.90;;
16642;SDS011;8435;52.184;5.406;2022-12-07T07:57:51;3.10;;;2.03;;
16642;SDS011;8435;52.184;5.406;2022-12-07T08:00:18;3.13;;;2.13;;
16642;SDS011;8435;52.184;5.406;2022-12-07T08:02:45;4.40;;;1.90;;
16642;SDS011;8435;52.184;5.406;2022-12-07T08:05:12;3.50;;;2.20;;
16642;SDS011;8435;52.184;5.406;2022-12-07T08:07:39;4.97;;;2.07;;
16642;SDS011;8435;52.184;5.406;2022-12-07T08:10:07;3.73;;;1.97;;
16642;SDS011;8435;52.184;5.406;2022-12-07T08:12:36;4.60;;;2.30;;
16642;SDS011;8435;52.184;5.406;2022-12-07T08:15:25;2.97;;;2.00;;
16642;SDS011;8435;52.184;5.406;2022-12-07T08:17:53;4.80;;;2.10;;
16642;SDS011;8435;52.184;5.406;2022-12-07T08:20:19;3.33;;;2.03;;
16642;SDS011;8435;52.184;5.406;2022-12-07T08:22:50;5.10;;;2.57;;
16642;SDS011;8435;52.184;5.406;2022-12-07T08:25:16;3.37;;;2.30;;
16642;SDS011;8435;52.184;5.406;2022-12-07T08:27:43;3.60;;;2.13;;
16642;SDS011;8435;52.184;5.406;2022-12-07T08:30:10;4.67;;;2.40;;
16642;SDS011;8435;52.184;5.406;2022-12-07T08:32:39;3.70;;;2.00;;
16642;SDS011;8435;52.184;5.406;2022-12-07T08:35:06;4.50;;;2.17;;
16642;SDS011;8435;52.184;5.406;2022-12-07T08:37:33;3.27;;;2.30;;
16642;SDS011;8435;52.184;5.406;2022-12-07T08:40:00;4.03;;;2.23;;
16642;SDS011;8435;52.184;5.406;2022-12-07T08:42:28;4.10;;;2.00;;
16642;SDS011;8435;52.184;5.406;2022-12-07T08:45:02;3.63;;;2.23;;
16642;SDS011;8435;52.184;5.406;2022-12-07T08:47:30;3.53;;;2.10;;
16642;SDS011;8435;52.184;5.406;2022-12-07T08:49:58;5.30;;;2.30;;
16642;SDS011;8435;52.184;5.406;2022-12-07T08:52:28;3.20;;;2.10;;
16642;SDS011;8435;52.184;5.406;2022-12-07T08:54:55;5.30;;;2.07;;
16642;SDS011;8435;52.184;5.406;2022-12-07T08:57:23;3.40;;;1.87;;
16642;SDS011;8435;52.184;5.406;2022-12-07T08:59:50;3.80;;;1.63;;
16642;SDS011;8435;52.184;5.406;2022-12-07T09:02:26;4.37;;;1.80;;
16642;SDS011;8435;52.184;5.406;2022-12-07T09:04:53;4.43;;;1.60;;
16642;SDS011;8435;52.184;5.406;2022-12-07T09:07:21;4.23;;;1.40;;
16642;SDS011;8435;52.184;5.406;2022-12-07T09:09:47;2.07;;;1.27;;
16642;SDS011;8435;52.184;5.406;2022-12-07T09:12:14;3.50;;;1.37;;
16642;SDS011;8435;52.184;5.406;2022-12-07T09:14:41;3.83;;;1.90;;
16642;SDS011;8435;52.184;5.406;2022-12-07T09:17:08;3.30;;;1.30;;
16642;SDS011;8435;52.184;5.406;2022-12-07T09:19:37;3.80;;;1.73;;
16642;SDS011;8435;52.184;5.406;2022-12-07T09:22:04;3.37;;;1.90;;
16642;SDS011;8435;52.184;5.406;2022-12-07T09:24:32;5.73;;;1.93;;
16642;SDS011;8435;52.184;5.406;2022-12-07T09:26:59;3.87;;;2.00;;
16642;SDS011;8435;52.184;5.406;2022-12-07T09:29:26;3.57;;;1.80;;
16642;SDS011;8435;52.184;5.406;2022-12-07T09:31:53;2.20;;;1.60;;
16642;SDS011;8435;52.184;5.406;2022-12-07T09:34:20;3.13;;;2.03;;
16642;SDS011;8435;52.184;5.406;2022-12-07T09:36:47;2.93;;;1.67;;
16642;SDS011;8435;52.184;5.406;2022-12-07T09:39:14;3.53;;;1.83;;
16642;SDS011;8435;52.184;5.406;2022-12-07T09:41:43;2.80;;;1.70;;
16642;SDS011;8435;52.184;5.406;2022-12-07T09:44:11;2.20;;;1.53;;
16642;SDS011;8435;52.184;5.406;2022-12-07T09:46:40;4.27;;;1.87;;
16642;SDS011;8435;52.184;5.406;2022-12-07T09:49:10;1.77;;;1.53;;
16642;SDS011;8435;52.184;5.406;2022-12-07T09:51:40;2.90;;;1.53;;
16642;SDS011;8435;52.184;5.406;2022-12-07T09:54:07;3.53;;;1.83;;
16642;SDS011;8435;52.184;5.406;2022-12-07T09:56:40;5.03;;;1.77;;
16642;SDS011;8435;52.184;5.406;2022-12-07T09:59:12;3.83;;;1.90;;
16642;SDS011;8435;52.184;5.406;2022-12-07T10:01:42;2.57;;;1.57;;
16642;SDS011;8435;52.184;5.406;2022-12-07T10:04:11;2.03;;;1.70;;
16642;SDS011;8435;52.184;5.406;2022-12-07T10:06:40;5.03;;;1.80;;
16642;SDS011;8435;52.184;5.406;2022-12-07T10:09:11;3.87;;;1.77;;
16642;SDS011;8435;52.184;5.406;2022-12-07T10:11:57;2.60;;;1.40;;
16642;SDS011;8435;52.184;5.406;2022-12-07T10:14:30;5.73;;;2.43;;
16642;SDS011;8435;52.184;5.406;2022-12-07T10:16:58;1.57;;;1.37;;
16642;SDS011;8435;52.184;5.406;2022-12-07T10:19:26;3.83;;;1.47;;
16642;SDS011;8435;52.184;5.406;2022-12-07T10:21:59;3.40;;;1.50;;
16642;SDS011;8435;52.184;5.406;2022-12-07T10:24:31;3.30;;;1.63;;
16642;SDS011;8435;52.184;5.406;2022-12-07T10:26:58;2.83;;;1.80;;
16642;SDS011;8435;52.184;5.406;2022-12-07T10:29:28;3.83;;;1.70;;
16642;SDS011;8435;52.184;5.406;2022-12-07T10:31:58;2.43;;;1.50;;
16642;SDS011;8435;52.184;5.406;2022-12-07T10:34:26;2.40;;;1.30;;
16642;SDS011;8435;52.184;5.406;2022-12-07T10:37:06;3.67;;;1.57;;
16642;SDS011;8435;52.184;5.406;2022-12-07T10:39:42;3.70;;;1.80;;
16642;SDS011;8435;52.184;5.406;2022-12-07T10:42:15;2.33;;;1.67;;
16642;SDS011;8435;52.184;5.406;2022-12-07T10:44:45;4.50;;;1.60;;
16642;SDS011;8435;52.184;5.406;2022-12-07T10:47:20;5.10;;;1.83;;
16642;SDS011;8435;52.184;5.406;2022-12-07T10:50:05;4.77;;;1.80;;
16642;SDS011;8435;52.184;5.406;2022-12-07T10:52:44;2.33;;;1.70;;
16642;SDS011;8435;52.184;5.406;2022-12-07T10:55:23;2.87;;;1.20;;
16642;SDS011;8435;52.184;5.406;2022-12-07T10:58:06;3.87;;;1.50;;
16642;SDS011;8435;52.184;5.406;2022-12-07T11:00:49;4.03;;;1.90;;
16642;SDS011;8435;52.184;5.406;2022-12-07T11:03:30;3.50;;;1.93;;
16642;SDS011;8435;52.184;5.406;2022-12-07T11:06:30;1.93;;;1.37;;
16642;SDS011;8435;52.184;5.406;2022-12-07T11:09:04;3.03;;;1.50;;
16642;SDS011;8435;52.184;5.406;2022-12-07T11:11:54;2.60;;;1.87;;
16642;SDS011;8435;52.184;5.406;2022-12-07T11:14:28;3.07;;;1.80;;
16642;SDS011;8435;52.184;5.406;2022-12-07T11:17:04;5.07;;;1.50;;
16642;SDS011;8435;52.184;5.406;2022-12-07T11:19:41;4.07;;;1.63;;
16642;SDS011;8435;52.184;5.406;2022-12-07T11:22:18;7.20;;;1.80;;
16642;SDS011;8435;52.184;5.406;2022-12-07T11:24:50;4.60;;;1.33;;
16642;SDS011;8435;52.184;5.406;2022-12-07T11:27:29;3.17;;;2.10;;
16642;SDS011;8435;52.184;5.406;2022-12-07T11:30:13;3.80;;;1.30;;
16642;SDS011;8435;52.184;5.406;2022-12-07T11:32:53;2.70;;;1.87;;
16642;SDS011;8435;52.184;5.406;2022-12-07T11:35:33;2.17;;;1.17;;
16642;SDS011;8435;52.184;5.406;2022-12-07T11:38:17;2.20;;;1.33;;
16642;SDS011;8435;52.184;5.406;2022-12-07T11:40:48;4.77;;;1.30;;
16642;SDS011;8435;52.184;5.406;2022-12-07T11:43:19;4.30;;;1.47;;
16642;SDS011;8435;52.184;5.406;2022-12-07T11:45:52;1.97;;;1.00;;
16642;SDS011;8435;52.184;5.406;2022-12-07T11:48:30;2.07;;;1.13;;
16642;SDS011;8435;52.184;5.406;2022-12-07T11:51:00;3.17;;;1.70;;
16642;SDS011;8435;52.184;5.406;2022-12-07T11:53:30;3.90;;;1.83;;
16642;SDS011;8435;52.184;5.406;2022-12-07T11:56:01;5.33;;;1.80;;
16642;SDS011;8435;52.184;5.406;2022-12-07T12:01:31;3.20;;;1.47;;
16642;SDS011;8435;52.184;5.406;2022-12-07T12:04:13;4.03;;;1.77;;
16642;SDS011;8435;52.184;5.406;2022-12-07T12:06:49;2.60;;;1.30;;
16642;SDS011;8435;52.184;5.406;2022-12-07T12:09:16;3.43;;;1.50;;
16642;SDS011;8435;52.184;5.406;2022-12-07T12:11:53;2.20;;;1.27;;
16642;SDS011;8435;52.184;5.406;2022-12-07T12:14:37;2.50;;;1.33;;
16642;SDS011;8435;52.184;5.406;2022-12-07T12:17:19;5.33;;;1.57;;
16642;SDS011;8435;52.184;5.406;2022-12-07T12:20:04;4.50;;;1.50;;
16642;SDS011;8435;52.184;5.406;2022-12-07T12:22:41;3.03;;;1.67;;
16642;SDS011;8435;52.184;5.406;2022-12-07T12:25:14;3.07;;;1.33;;
16642;SDS011;8435;52.184;5.406;2022-12-07T12:27:48;2.77;;;1.10;;
16642;SDS011;8435;52.184;5.406;2022-12-07T12:30:30;1.40;;;1.10;;
16642;SDS011;8435;52.184;5.406;2022-12-07T12:33:03;3.10;;;1.60;;
16642;SDS011;8435;52.184;5.406;2022-12-07T12:35:41;4.60;;;1.50;;
16642;SDS011;8435;52.184;5.406;2022-12-07T12:38:25;4.83;;;1.53;;
16642;SDS011;8435;52.184;5.406;2022-12-07T12:40:55;3.93;;;1.10;;
16642;SDS011;8435;52.184;5.406;2022-12-07T12:49:14;4.13;;;1.80;;
16642;SDS011;8435;52.184;5.406;2022-12-07T12:55:28;3.67;;;1.17;;
16642;SDS011;8435;52.184;5.406;2022-12-07T12:58:33;2.10;;;1.03;;
16642;SDS011;8435;52.184;5.406;2022-12-07T13:04:14;2.40;;;0.80;;
16642;SDS011;8435;52.184;5.406;2022-12-07T13:06:47;2.33;;;0.80;;
16642;SDS011;8435;52.184;5.406;2022-12-07T13:09:18;2.03;;;0.83;;
16642;SDS011;8435;52.184;5.406;2022-12-07T13:11:49;1.33;;;0.80;;
16642;SDS011;8435;52.184;5.406;2022-12-07T13:17:08;2.43;;;0.83;;
16642;SDS011;8435;52.184;5.406;2022-12-07T13:25:19;1.87;;;1.50;;
16642;SDS011;8435;52.184;5.406;2022-12-07T13:27:55;1.43;;;1.00;;
16642;SDS011;8435;52.184;5.406;2022-12-07T13:30:25;1.27;;;1.13;;
16642;SDS011;8435;52.184;5.406;2022-12-07T13:32:54;1.60;;;1.20;;
16642;SDS011;8435;52.184;5.406;2022-12-07T13:35:30;2.20;;;0.80;;
16642;SDS011;8435;52.184;5.406;2022-12-07T13:37:59;1.10;;;1.00;;
16642;SDS011;8435;52.184;5.406;2022-12-07T13:40:29;1.87;;;0.80;;
16642;SDS011;8435;52.184;5.406;2022-12-07T13:42:58;2.03;;;0.90;;
16642;SDS011;8435;52.184;5.406;2022-12-07T13:45:27;0.90;;;0.77;;
16642;SDS011;8435;52.184;5.406;2022-12-07T13:48:10;1.23;;;1.10;;
16642;SDS011;8435;52.184;5.406;2022-12-07T13:50:42;2.20;;;1.10;;
16642;SDS011;8435;52.184;5.406;2022-12-07T13:53:11;2.00;;;1.00;;
16642;SDS011;8435;52.184;5.406;2022-12-07T13:55:43;2.60;;;0.93;;
16642;SDS011;8435;52.184;5.406;2022-12-07T13:58:13;1.27;;;0.70;;
16642;SDS011;8435;52.184;5.406;2022-12-07T14:00:40;1.63;;;1.07;;
16642;SDS011;8435;52.184;5.406;2022-12-07T14:03:23;2.43;;;1.00;;
16642;SDS011;8435;52.184;5.406;2022-12-07T14:08:45;1.43;;;1.20;;
16642;SDS011;8435;52.184;5.406;2022-12-07T14:11:16;2.30;;;1.00;;
16642;SDS011;8435;52.184;5.406;2022-12-07T14:13:51;1.37;;;1.13;;
16642;SDS011;8435;52.184;5.406;2022-12-07T14:16:25;3.27;;;1.37;;
16642;SDS011;8435;52.184;5.406;2022-12-07T14:18:54;3.33;;;1.20;;
16642;SDS011;8435;52.184;5.406;2022-12-07T14:21:22;4.23;;;1.50;;
16642;SDS011;8435;52.184;5.406;2022-12-07T14:24:11;2.40;;;1.43;;
16642;SDS011;8435;52.184;5.406;2022-12-07T14:26:43;1.63;;;1.33;;
16642;SDS011;8435;52.184;5.406;2022-12-07T14:29:27;2.30;;;1.70;;
16642;SDS011;8435;52.184;5.406;2022-12-07T14:31:57;4.87;;;1.97;;
16642;SDS011;8435;52.184;5.406;2022-12-07T14:34:34;1.53;;;1.23;;
16642;SDS011;8435;52.184;5.406;2022-12-07T14:37:01;2.47;;;1.37;;
16642;SDS011;8435;52.184;5.406;2022-12-07T14:39:28;2.13;;;1.33;;
16642;SDS011;8435;52.184;5.406;2022-12-07T14:41:55;3.27;;;2.00;;
16642;SDS011;8435;52.184;5.406;2022-12-07T14:44:23;4.93;;;1.87;;
16642;SDS011;8435;52.184;5.406;2022-12-07T14:46:49;2.73;;;1.43;;
16642;SDS011;8435;52.184;5.406;2022-12-07T14:49:17;3.00;;;1.53;;
16642;SDS011;8435;52.184;5.406;2022-12-07T14:51:44;3.20;;;1.60;;
16642;SDS011;8435;52.184;5.406;2022-12-07T14:54:14;2.10;;;1.20;;
16642;SDS011;8435;52.184;5.406;2022-12-07T14:56:43;1.33;;;1.20;;
16642;SDS011;8435;52.184;5.406;2022-12-07T14:59:11;3.40;;;1.73;;
16642;SDS011;8435;52.184;5.406;2022-12-07T15:01:39;1.90;;;1.40;;
16642;SDS011;8435;52.184;5.406;2022-12-07T15:04:06;2.27;;;1.40;;
16642;SDS011;8435;52.184;5.406;2022-12-07T15:06:33;2.40;;;1.70;;
16642;SDS011;8435;52.184;5.406;2022-12-07T15:09:00;4.03;;;1.40;;
16642;SDS011;8435;52.184;5.406;2022-12-07T15:11:27;2.80;;;1.43;;
16642;SDS011;8435;52.184;5.406;2022-12-07T15:13:54;2.77;;;1.53;;
16642;SDS011;8435;52.184;5.406;2022-12-07T15:16:37;3.47;;;1.63;;
16642;SDS011;8435;52.184;5.406;2022-12-07T15:19:09;2.73;;;1.30;;
16642;SDS011;8435;52.184;5.406;2022-12-07T15:21:39;2.40;;;1.20;;
16642;SDS011;8435;52.184;5.406;2022-12-07T15:24:07;1.87;;;1.67;;
16642;SDS011;8435;52.184;5.406;2022-12-07T15:26:34;1.57;;;1.20;;
16642;SDS011;8435;52.184;5.406;2022-12-07T15:29:06;3.03;;;1.40;;
16642;SDS011;8435;52.184;5.406;2022-12-07T15:31:34;2.30;;;1.43;;
16642;SDS011;8435;52.184;5.406;2022-12-07T15:34:02;1.67;;;1.17;;
16642;SDS011;8435;52.184;5.406;2022-12-07T15:36:30;1.63;;;1.00;;
16642;SDS011;8435;52.184;5.406;2022-12-07T15:38:58;0.93;;;0.83;;
16642;SDS011;8435;52.184;5.406;2022-12-07T15:41:25;2.20;;;1.30;;
16642;SDS011;8435;52.184;5.406;2022-12-07T15:43:53;3.30;;;1.20;;
16642;SDS011;8435;52.184;5.406;2022-12-07T15:46:40;1.30;;;1.20;;
16642;SDS011;8435;52.184;5.406;2022-12-07T15:49:10;2.00;;;1.30;;